createdAt,value
2023-03-16T00:00:35.457Z,100393.20
2023-03-16T00:03:20.865Z,100386.83
2023-03-16T00:05:50.948Z,100383.11
2023-03-16T00:08:22.218Z,100377.93
2023-03-16T00:10:54.397Z,100374.14
2023-03-16T00:13:24.649Z,100368.14
2023-03-16T00:15:57.930Z,100369.67
2023-03-16T00:18:29.070Z,100372.88
2023-03-16T00:21:05.440Z,100373.42
2023-03-16T00:23:36.335Z,100377.86
2023-03-16T00:26:07.469Z,100378.02
2023-03-16T00:28:36.567Z,100380.24
2023-03-16T00:31:06.707Z,100385.84
2023-03-16T00:33:35.680Z,100385.28
2023-03-16T00:36:08.203Z,100391.45
2023-03-16T00:38:39.367Z,100392.17
2023-03-16T00:41:09.517Z,100389.66
2023-03-16T00:43:45.171Z,100378.30
2023-03-16T00:46:16.355Z,100374.64
2023-03-16T00:48:47.577Z,100370.96
2023-03-16T00:51:17.710Z,100378.44
2023-03-16T00:53:46.931Z,100389.04
2023-03-16T00:56:15.687Z,100384.51
2023-03-16T00:58:44.044Z,100387.55
2023-03-16T01:01:15.536Z,100385.86
2023-03-16T01:03:43.881Z,100395.86
2023-03-16T01:06:15.319Z,100405.19
2023-03-16T01:08:44.646Z,100407.66
2023-03-16T01:11:18.130Z,100412.86
2023-03-16T01:13:47.839Z,100418.28
2023-03-16T01:16:19.256Z,100417.74
2023-03-16T01:18:48.087Z,100424.08
2023-03-16T01:21:16.769Z,100426.98
2023-03-16T01:23:45.465Z,100423.48
2023-03-16T01:26:15.473Z,100419.46
2023-03-16T01:28:44.785Z,100417.14
2023-03-16T01:31:17.150Z,100416.70
2023-03-16T01:33:45.540Z,100423.24
2023-03-16T01:36:16.870Z,100425.29
2023-03-16T01:38:46.085Z,100418.27
2023-03-16T01:41:15.270Z,100417.57
2023-03-16T01:43:43.956Z,100419.33
2023-03-16T01:46:20.330Z,100424.47
2023-03-16T01:49:08.376Z,100428.33
2023-03-16T01:51:56.613Z,100432.30
2023-03-16T01:54:37.891Z,100436.27
2023-03-16T01:57:20.738Z,100431.80
2023-03-16T02:00:19.428Z,100431.11
2023-03-16T02:02:51.899Z,100432.20
2023-03-16T02:05:25.045Z,100430.70
2023-03-16T02:07:59.080Z,100435.63
2023-03-16T02:10:29.578Z,100442.81
2023-03-16T02:12:58.921Z,100445.84
2023-03-16T02:15:27.747Z,100447.29
2023-03-16T02:17:58.069Z,100451.34
2023-03-16T02:20:37.890Z,100451.60
2023-03-16T02:23:08.299Z,100454.60
2023-03-16T02:26:05.558Z,100457.87
2023-03-16T02:29:11.820Z,100465.21
2023-03-16T02:31:41.122Z,100467.80
2023-03-16T02:34:10.120Z,100475.15
2023-03-16T02:36:39.831Z,100483.94
2023-03-16T02:39:08.412Z,100492.15
2023-03-16T02:41:37.420Z,100493.64
2023-03-16T02:44:18.378Z,100500.48
2023-03-16T02:46:47.177Z,100503.35
2023-03-16T02:49:33.465Z,100505.57
2023-03-16T02:52:01.742Z,100508.04
2023-03-16T02:54:30.121Z,100508.96
2023-03-16T02:56:58.506Z,100510.86
2023-03-16T02:59:26.885Z,100509.65
2023-03-16T03:01:55.366Z,100509.95
2023-03-16T03:04:24.957Z,100510.48
2023-03-16T03:06:53.255Z,100507.67
2023-03-16T03:09:21.729Z,100495.63
2023-03-16T03:11:50.925Z,100490.55
2023-03-16T03:14:19.205Z,100493.43
2023-03-16T03:16:48.044Z,100495.36
2023-03-16T03:19:16.373Z,100500.03
2023-03-16T03:21:45.389Z,100503.51
2023-03-16T03:24:13.746Z,100505.54
2023-03-16T03:26:42.126Z,100503.36
2023-03-16T03:29:10.512Z,100509.91
2023-03-16T03:31:38.960Z,100509.77
2023-03-16T03:34:07.470Z,100510.29
2023-03-16T03:36:36.080Z,100510.37
2023-03-16T03:39:05.354Z,100514.41
2023-03-16T03:41:34.003Z,100518.70
2023-03-16T03:44:02.216Z,100524.22
2023-03-16T03:46:30.679Z,100515.84
2023-03-16T03:49:03.994Z,100508.10
2023-03-16T03:51:33.599Z,100507.48
2023-03-16T03:54:01.780Z,100509.80
2023-03-16T03:56:30.169Z,100510.33
2023-03-16T03:58:58.536Z,100510.75
2023-03-16T04:01:26.912Z,100511.65
2023-03-16T04:03:55.305Z,100512.28
2023-03-16T04:06:23.672Z,100516.63
2023-03-16T04:08:54.611Z,100514.05
2023-03-16T04:11:23.102Z,100515.73
2023-03-16T04:13:53.632Z,100517.88
2023-03-16T04:16:22.510Z,100517.73
2023-03-16T04:18:50.891Z,100518.44
2023-03-16T04:21:19.274Z,100518.60
2023-03-16T04:23:48.570Z,100516.98
2023-03-16T04:26:16.947Z,100518.08
2023-03-16T04:28:45.236Z,100517.30
2023-03-16T04:31:14.403Z,100515.17
2023-03-16T04:33:42.821Z,100518.40
2023-03-16T04:36:12.369Z,100522.74
2023-03-16T04:38:41.003Z,100526.06
2023-03-16T04:41:11.658Z,100531.60
2023-03-16T04:43:40.012Z,100537.36
2023-03-16T04:46:08.463Z,100540.11
2023-03-16T04:48:37.406Z,100545.22
2023-03-16T04:51:06.275Z,100546.28
2023-03-16T04:53:34.856Z,100551.02
2023-03-16T04:56:04.366Z,100555.42
2023-03-16T04:58:32.651Z,100556.65
2023-03-16T05:01:01.024Z,100563.23
2023-03-16T05:03:29.405Z,100565.48
2023-03-16T05:05:57.859Z,100562.70
2023-03-16T05:08:26.258Z,100564.34
2023-03-16T05:10:59.249Z,100568.67
2023-03-16T05:13:27.534Z,100570.55
2023-03-16T05:15:56.297Z,100573.17
2023-03-16T05:18:25.414Z,100577.21
2023-03-16T05:20:56.187Z,100581.85
2023-03-16T05:23:24.628Z,100585.77
2023-03-16T05:25:52.801Z,100584.75
2023-03-16T05:28:21.179Z,100584.89
2023-03-16T05:30:49.696Z,100586.27
2023-03-16T05:33:18.151Z,100586.27
2023-03-16T05:35:46.549Z,100588.19
2023-03-16T05:38:16.026Z,100593.91
2023-03-16T05:40:44.300Z,100599.64
2023-03-16T05:43:12.585Z,100606.63
2023-03-16T05:45:40.881Z,100612.23
2023-03-16T05:48:09.262Z,100616.41
2023-03-16T05:50:37.625Z,100619.55
2023-03-16T05:53:06.106Z,100621.40
2023-03-16T05:55:35.011Z,100624.15
2023-03-16T05:58:05.598Z,100630.83
2023-03-16T06:00:34.111Z,100635.20
2023-03-16T06:03:02.547Z,100636.48
2023-03-16T06:05:32.425Z,100645.64
2023-03-16T06:08:01.709Z,100653.10
2023-03-16T06:10:30.343Z,100656.43
2023-03-16T06:12:59.953Z,100653.73
2023-03-16T06:15:30.856Z,100654.90
2023-03-16T06:17:59.434Z,100652.41
2023-03-16T06:20:28.186Z,100651.10
2023-03-16T06:22:56.801Z,100653.97
2023-03-16T06:25:25.073Z,100659.20
2023-03-16T06:27:53.452Z,100663.98
2023-03-16T06:30:22.341Z,100670.13
2023-03-16T06:32:51.022Z,100673.60
2023-03-16T06:35:19.718Z,100671.45
2023-03-16T06:37:48.093Z,100671.71
2023-03-16T06:40:16.878Z,100671.77
2023-03-16T06:42:46.999Z,100677.20
2023-03-16T06:45:17.664Z,100683.09
2023-03-16T06:47:45.811Z,100684.98
2023-03-16T06:50:14.940Z,100687.31
2023-03-16T06:52:43.289Z,100690.30
2023-03-16T06:55:13.098Z,100689.98
2023-03-16T06:57:42.340Z,100699.12
2023-03-16T07:00:14.402Z,100697.06
2023-03-16T07:02:44.030Z,100702.69
2023-03-16T07:05:29.963Z,100703.42
2023-03-16T07:08:15.562Z,100707.20
2023-03-16T07:10:43.843Z,100709.69
2023-03-16T07:13:29.520Z,100709.22
2023-03-16T07:15:58.406Z,100711.79
2023-03-16T07:18:44.903Z,100718.90
2023-03-16T07:21:32.431Z,100722.65
2023-03-16T07:24:01.636Z,100725.20
2023-03-16T07:26:47.624Z,100726.42
2023-03-16T07:29:34.471Z,100728.77
2023-03-16T07:32:20.228Z,100730.91
2023-03-16T07:34:49.313Z,100730.12
2023-03-16T07:37:35.411Z,100730.01
2023-03-16T07:40:21.516Z,100726.58
2023-03-16T07:42:50.192Z,100728.77
2023-03-16T07:45:18.672Z,100732.52
2023-03-16T07:48:04.870Z,100734.90
2023-03-16T07:50:33.654Z,100736.11
2023-03-16T07:53:02.036Z,100738.55
2023-03-16T07:55:31.336Z,100740.11
2023-03-16T07:57:59.617Z,100740.77
2023-03-16T08:00:28.433Z,100737.87
2023-03-16T08:02:57.911Z,100739.31
2023-03-16T08:05:27.792Z,100741.81
2023-03-16T08:07:59.069Z,100745.52
2023-03-16T08:10:28.488Z,100746.60
2023-03-16T08:12:57.137Z,100750.36
2023-03-16T08:15:25.547Z,100749.46
2023-03-16T08:17:54.444Z,100751.89
2023-03-16T08:20:22.927Z,100750.23
2023-03-16T08:22:51.397Z,100749.75
2023-03-16T08:25:20.294Z,100752.27
2023-03-16T08:27:48.912Z,100753.73
2023-03-16T08:30:18.243Z,100755.52
2023-03-16T08:32:46.679Z,100755.16
2023-03-16T08:35:16.892Z,100755.42
2023-03-16T08:37:46.613Z,100757.52
2023-03-16T08:40:17.236Z,100757.92
2023-03-16T08:42:46.012Z,100758.67
2023-03-16T08:45:15.216Z,100760.23
2023-03-16T08:47:44.324Z,100762.50
2023-03-16T08:50:13.543Z,100763.89
2023-03-16T08:52:43.002Z,100762.16
2023-03-16T09:02:48.197Z,100754.77
2023-03-16T09:05:18.516Z,100757.70
2023-03-16T09:07:48.978Z,100759.59
2023-03-16T09:10:19.251Z,100768.80
2023-03-16T09:12:47.988Z,100761.08
2023-03-16T09:15:17.063Z,100759.92
2023-03-16T09:17:46.070Z,100768.47
2023-03-16T09:20:26.892Z,100769.94
2023-03-16T09:22:59.092Z,100774.49
2023-03-16T09:25:27.996Z,100774.46
2023-03-16T09:27:56.667Z,100777.02
2023-03-16T09:30:25.296Z,100779.07
2023-03-16T09:32:53.878Z,100782.05
2023-03-16T09:35:22.627Z,100783.55
2023-03-16T09:38:05.140Z,100785.23
2023-03-16T09:40:34.440Z,100789.04
2023-03-16T09:43:09.419Z,100790.65
2023-03-16T09:46:00.072Z,100794.03
2023-03-16T09:48:31.219Z,100801.23
2023-03-16T09:51:01.262Z,100807.02
2023-03-16T09:53:38.117Z,100810.23
2023-03-16T09:56:34.657Z,100809.84
2023-03-16T09:59:10.753Z,100815.73
2023-03-16T10:02:06.359Z,100823.46
2023-03-16T10:04:43.371Z,100827.20
2023-03-16T10:07:42.001Z,100827.11
2023-03-16T10:10:10.286Z,100825.48
2023-03-16T10:12:42.604Z,100827.05
2023-03-16T10:15:15.074Z,100830.08
2023-03-16T10:18:03.369Z,100835.78
2023-03-16T10:20:34.194Z,100828.81
2023-03-16T10:23:15.493Z,100830.52
2023-03-16T10:33:44.041Z,100828.27
2023-03-16T10:36:26.241Z,100825.83
2023-03-16T10:39:00.569Z,100825.48
2023-03-16T10:41:34.606Z,100822.56
2023-03-16T10:44:10.298Z,100821.11
2023-03-16T10:46:43.193Z,100827.89
2023-03-16T10:49:20.799Z,100826.40
2023-03-16T10:51:49.694Z,100827.36
2023-03-16T10:54:29.650Z,100829.58
2023-03-16T10:56:59.662Z,100825.98
2023-03-16T10:59:33.410Z,100825.70
2023-03-16T11:02:04.040Z,100823.13
2023-03-16T11:04:33.428Z,100825.98
2023-03-16T11:07:02.004Z,100824.33
2023-03-16T11:09:35.227Z,100826.59
2023-03-16T11:12:25.782Z,100826.55
2023-03-16T11:14:54.981Z,100824.52
2023-03-16T11:17:35.645Z,100827.02
2023-03-16T11:20:12.651Z,100824.17
2023-03-16T11:22:45.821Z,100826.84
2023-03-16T11:25:45.785Z,100825.33
2023-03-16T11:28:26.221Z,100823.22
2023-03-16T11:31:06.814Z,100825.77
2023-03-16T11:33:35.355Z,100830.10
2023-03-16T11:36:31.992Z,100830.23
2023-03-16T11:39:22.498Z,100836.40
2023-03-16T11:42:09.822Z,100833.94
2023-03-16T11:44:43.832Z,100835.27
2023-03-16T11:48:00.917Z,100834.27
2023-03-16T11:50:47.353Z,100835.60
2023-03-16T11:53:33.068Z,100838.11
2023-03-16T11:56:13.397Z,100839.59
2023-03-16T11:58:53.747Z,100841.44
2023-03-16T12:01:22.689Z,100845.12
2023-03-16T12:04:06.348Z,100842.95
2023-03-16T12:07:01.287Z,100845.48
2023-03-16T12:09:58.337Z,100845.89
2023-03-16T12:12:32.445Z,100848.08
2023-03-16T12:15:14.448Z,100845.00
2023-03-16T12:17:44.571Z,100841.98
2023-03-16T12:20:31.876Z,100845.05
2023-03-16T12:23:06.358Z,100849.23
2023-03-16T12:25:39.811Z,100854.04
2023-03-16T12:28:17.537Z,100854.73
2023-03-16T12:31:00.728Z,100864.89
2023-03-16T12:34:07.005Z,100868.67
2023-03-16T12:37:10.813Z,100872.91
2023-03-16T12:39:51.766Z,100877.33
2023-03-16T12:42:46.171Z,100873.49
2023-03-16T12:45:37.456Z,100880.74
2023-03-16T12:48:28.559Z,100883.14
2023-03-16T12:51:00.566Z,100891.21
2023-03-16T12:53:41.045Z,100883.15
2023-03-16T12:56:21.731Z,100888.40
2023-03-16T12:58:50.989Z,100891.52
2023-03-16T13:01:21.408Z,100888.36
2023-03-16T13:03:51.038Z,100888.98
2023-03-16T13:06:23.724Z,100888.16
2023-03-16T13:08:58.015Z,100893.58
2023-03-16T13:11:28.070Z,100892.46
2023-03-16T13:14:02.470Z,100891.64
2023-03-16T13:16:38.611Z,100894.20
2023-03-16T13:19:27.619Z,100895.73
2023-03-16T13:22:06.865Z,100890.66
2023-03-16T13:24:40.132Z,100893.40
2023-03-16T13:27:34.570Z,100891.73
2023-03-16T13:30:18.367Z,100893.01
2023-03-16T13:32:48.223Z,100896.78
2023-03-16T13:35:17.808Z,100900.64
2023-03-16T13:37:47.488Z,100900.61
2023-03-16T13:40:23.356Z,100900.34
2023-03-16T13:42:53.284Z,100901.52
2023-03-16T13:45:29.320Z,100902.86
2023-03-16T13:48:00.550Z,100903.20
2023-03-16T13:50:33.351Z,100908.24
2023-03-16T13:53:05.820Z,100906.88
2023-03-16T13:55:36.968Z,100907.02
2023-03-16T13:58:05.552Z,100911.84
2023-03-16T14:00:39.098Z,100914.90
2023-03-16T14:03:18.735Z,100916.29
2023-03-16T14:05:47.847Z,100918.23
2023-03-16T14:08:23.853Z,100917.07
2023-03-16T14:10:55.259Z,100916.52
2023-03-16T14:13:27.773Z,100917.48
2023-03-16T14:15:58.682Z,100918.73
2023-03-16T14:18:41.330Z,100921.80
2023-03-16T14:21:23.191Z,100923.77
2023-03-16T14:23:55.313Z,100932.33
2023-03-16T14:26:23.886Z,100933.63
2023-03-16T14:29:15.384Z,100935.52
2023-03-16T14:31:43.571Z,100944.76
2023-03-16T14:34:29.379Z,100945.29
2023-03-16T14:37:11.556Z,100949.66
2023-03-16T14:39:43.055Z,100953.63
2023-03-16T14:42:30.797Z,100957.23
2023-03-16T14:45:01.137Z,100957.05
2023-03-16T14:47:32.266Z,100963.39
2023-03-16T14:50:07.793Z,100971.27
2023-03-16T14:52:37.475Z,100978.31
2023-03-16T14:55:19.873Z,100982.52
2023-03-16T14:57:49.696Z,100988.09
2023-03-16T15:00:20.164Z,100987.67
2023-03-16T15:03:07.867Z,100985.73
2023-03-16T15:05:39.259Z,100991.31
2023-03-16T15:08:15.243Z,100998.54
2023-03-16T15:10:45.288Z,100997.45
2023-03-16T15:13:17.427Z,101000.23
2023-03-16T15:15:48.846Z,101005.07
2023-03-16T15:18:17.604Z,101009.48
2023-03-16T15:20:46.692Z,101010.54
2023-03-16T15:23:17.342Z,101012.35
2023-03-16T15:25:47.132Z,101014.83
2023-03-16T15:28:27.085Z,101016.29
2023-03-16T15:30:57.636Z,101018.85
2023-03-16T15:33:26.921Z,101025.73
2023-03-16T15:36:00.158Z,101036.39
2023-03-16T15:38:34.858Z,101043.77
2023-03-16T15:41:03.748Z,101051.18
2023-03-16T15:43:32.208Z,101056.80
2023-03-16T15:46:00.583Z,101059.11
2023-03-16T15:48:28.967Z,101062.63
2023-03-16T15:51:02.975Z,101067.24
2023-03-16T15:53:38.886Z,101070.56
2023-03-16T15:56:10.895Z,101077.77
2023-03-16T15:58:42.146Z,101081.59
2023-03-16T16:01:22.481Z,101081.41
2023-03-16T16:03:51.894Z,101088.55
2023-03-16T16:06:21.005Z,101088.98
2023-03-16T16:08:49.271Z,101095.63
2023-03-16T16:11:22.056Z,101098.79
2023-03-16T16:13:51.874Z,101101.40
2023-03-16T16:16:20.639Z,101103.84
2023-03-16T16:18:49.250Z,101105.91
2023-03-16T16:21:19.472Z,101108.83
2023-03-16T16:23:48.250Z,101110.39
2023-03-16T16:26:45.525Z,101120.66
2023-03-16T16:29:22.416Z,101121.13
2023-03-16T16:31:54.054Z,101125.25
2023-03-16T16:34:25.226Z,101128.81
2023-03-16T16:36:55.618Z,101137.02
2023-03-16T16:39:24.866Z,101140.30
2023-03-16T16:41:57.231Z,101149.39
2023-03-16T16:44:28.156Z,101150.73
2023-03-16T16:46:56.922Z,101155.75
2023-03-16T16:49:28.300Z,101156.39
2023-03-16T16:51:57.671Z,101162.30
2023-03-16T16:54:29.175Z,101163.81
2023-03-16T16:56:59.254Z,101161.81
2023-03-16T16:59:34.990Z,101168.28
2023-03-16T17:02:29.014Z,101166.38
2023-03-16T17:04:57.679Z,101171.42
2023-03-16T17:07:26.065Z,101178.19
2023-03-16T17:09:54.316Z,101181.54
2023-03-16T17:12:23.921Z,101186.74
2023-03-16T17:14:52.311Z,101194.73
2023-03-16T17:17:21.810Z,101200.50
2023-03-16T17:19:50.492Z,101199.40
2023-03-16T17:22:28.599Z,101202.27
2023-03-16T17:24:57.200Z,101204.79
2023-03-16T17:27:29.271Z,101209.77
2023-03-16T17:29:58.082Z,101208.54
2023-03-16T17:32:26.845Z,101207.59
2023-03-16T17:34:55.211Z,101213.92
2023-03-16T17:37:23.611Z,101210.52
2023-03-16T17:39:52.892Z,101212.05
2023-03-16T17:42:23.201Z,101216.06
2023-03-16T17:44:53.036Z,101218.06
2023-03-16T17:47:26.662Z,101219.25
2023-03-16T17:49:57.251Z,101219.23
2023-03-16T17:52:29.035Z,101226.44
2023-03-16T17:54:57.611Z,101229.04
2023-03-16T17:57:30.349Z,101231.41
2023-03-16T18:00:01.010Z,101237.11
2023-03-16T18:02:35.263Z,101237.47
2023-03-16T18:05:05.805Z,101240.17
2023-03-16T18:07:34.262Z,101243.58
2023-03-16T18:10:02.531Z,101246.06
2023-03-16T18:12:31.008Z,101251.80
2023-03-16T18:14:59.601Z,101250.00
2023-03-16T18:17:30.322Z,101230.23
2023-03-16T18:19:59.317Z,101234.80
2023-03-16T18:22:28.318Z,101237.11
2023-03-16T18:24:56.905Z,101234.66
2023-03-16T18:27:25.915Z,101236.82
2023-03-16T18:29:54.376Z,101239.04
2023-03-16T18:32:25.494Z,101241.77
2023-03-16T18:34:54.006Z,101246.95
2023-03-16T18:37:25.351Z,101271.25
2023-03-16T18:39:54.572Z,101265.63
2023-03-16T18:42:26.353Z,101272.52
2023-03-16T18:44:54.691Z,101269.20
2023-03-16T18:47:24.939Z,101272.63
2023-03-16T18:49:54.316Z,101272.16
2023-03-16T18:52:24.801Z,101277.28
2023-03-16T18:54:53.529Z,101282.02
2023-03-16T18:57:29.081Z,101284.63
2023-03-16T18:59:57.489Z,101284.27
2023-03-16T19:02:29.711Z,101280.66
2023-03-16T19:05:00.740Z,101280.84
2023-03-16T19:07:37.648Z,101281.65
2023-03-16T19:10:29.579Z,101287.56
2023-03-16T19:12:58.997Z,101288.51
2023-03-16T19:15:28.848Z,101290.45
2023-03-16T19:17:58.344Z,101293.23
2023-03-16T19:20:32.887Z,101294.52
2023-03-16T19:23:06.698Z,101298.21
2023-03-16T19:25:37.576Z,101303.31
2023-03-16T19:28:09.083Z,101302.11
2023-03-16T19:30:37.601Z,101301.30
2023-03-16T19:33:26.571Z,101304.95
2023-03-16T19:35:56.258Z,101314.02
2023-03-16T19:38:26.085Z,101314.52
2023-03-16T19:40:57.436Z,101316.42
2023-03-16T19:43:26.960Z,101319.42
2023-03-16T19:45:56.777Z,101321.63
2023-03-16T19:48:33.022Z,101319.45
2023-03-16T19:51:02.227Z,101327.72
2023-03-16T19:53:30.608Z,101329.16
2023-03-16T19:55:59.004Z,101327.39
2023-03-16T19:58:35.596Z,101334.07
2023-03-16T20:01:04.871Z,101332.98
2023-03-16T20:03:35.488Z,101331.89
2023-03-16T20:06:04.385Z,101338.30
2023-03-16T20:08:32.663Z,101343.52
2023-03-16T20:11:07.474Z,101343.95
2023-03-16T20:13:36.580Z,101347.84
2023-03-16T20:16:05.786Z,101347.81
2023-03-16T20:18:33.955Z,101350.90
2023-03-16T20:21:02.592Z,101350.15
2023-03-16T20:23:31.535Z,101354.14
2023-03-16T20:26:02.658Z,101355.79
2023-03-16T20:28:38.628Z,101358.65
2023-03-16T20:31:13.068Z,101361.07
2023-03-16T20:33:41.429Z,101361.30
2023-03-16T20:36:12.592Z,101359.35
2023-03-16T20:38:41.265Z,101360.36
2023-03-16T20:41:24.907Z,101360.48
2023-03-16T20:43:54.811Z,101361.95
2023-03-16T20:46:26.409Z,101362.23
2023-03-16T20:48:55.764Z,101359.06
2023-03-16T20:51:24.970Z,101362.35
2023-03-16T20:53:53.591Z,101365.81
2023-03-16T20:56:25.623Z,101360.77
2023-03-16T20:58:56.428Z,101362.08
2023-03-16T21:01:24.993Z,101365.91
2023-03-16T21:03:55.761Z,101365.64
2023-03-16T21:06:30.481Z,101362.91
2023-03-16T21:09:01.235Z,101362.66
2023-03-16T21:11:39.246Z,101366.67
2023-03-16T21:14:15.813Z,101361.98
2023-03-16T21:16:45.016Z,101360.65
2023-03-16T21:19:23.004Z,101359.94
2023-03-16T21:21:51.853Z,101358.77
2023-03-16T21:24:20.186Z,101355.88
2023-03-16T21:26:48.773Z,101355.17
2023-03-16T21:29:22.091Z,101362.45
2023-03-16T21:31:50.446Z,101357.17
2023-03-16T21:34:31.416Z,101362.02
2023-03-16T21:36:59.693Z,101361.78
2023-03-16T21:39:28.496Z,101367.09
2023-03-16T21:41:56.761Z,101367.64
2023-03-16T21:44:25.137Z,101371.41
2023-03-16T21:46:53.544Z,101371.62
2023-03-16T21:49:22.105Z,101375.36
2023-03-16T21:51:51.303Z,101374.64
2023-03-16T21:54:19.887Z,101375.34
2023-03-16T21:56:48.267Z,101374.20
2023-03-16T21:59:16.691Z,101377.50
2023-03-16T22:02:00.393Z,101373.35
2023-03-16T22:04:30.297Z,101375.77
2023-03-16T22:06:58.673Z,101375.98
2023-03-16T22:09:30.480Z,101378.80
2023-03-16T22:11:59.030Z,101379.27
2023-03-16T22:14:27.498Z,101373.08
2023-03-16T22:16:56.960Z,101378.80
2023-03-16T22:19:27.620Z,101385.15
2023-03-16T22:21:59.395Z,101388.22
2023-03-16T22:24:30.650Z,101393.27
2023-03-16T22:26:59.735Z,101395.05
2023-03-16T22:29:30.373Z,101397.48
2023-03-16T22:32:03.373Z,101400.89
2023-03-16T22:34:43.309Z,101397.80
2023-03-16T22:37:14.665Z,101398.89
2023-03-16T22:39:43.074Z,101404.48
2023-03-16T22:42:37.405Z,101406.86
2023-03-16T22:45:14.605Z,101409.44
2023-03-16T22:47:43.005Z,101407.80
2023-03-16T22:50:16.900Z,101405.06
2023-03-16T22:52:48.086Z,101405.73
2023-03-16T22:55:25.248Z,101408.33
2023-03-16T22:58:04.287Z,101411.33
2023-03-16T23:00:32.857Z,101410.66
2023-03-16T23:03:01.452Z,101414.16
2023-03-16T23:05:30.280Z,101416.58
2023-03-16T23:08:01.072Z,101417.10
2023-03-16T23:10:29.845Z,101421.07
2023-03-16T23:12:59.827Z,101421.02
2023-03-16T23:15:30.559Z,101427.47
2023-03-16T23:17:59.085Z,101425.40
2023-03-16T23:20:30.443Z,101428.27
2023-03-16T23:22:59.220Z,101429.84
2023-03-16T23:25:27.910Z,101433.61
2023-03-16T23:27:57.832Z,101436.48
2023-03-16T23:30:26.198Z,101436.78
2023-03-16T23:32:55.770Z,101440.55
2023-03-16T23:35:25.122Z,101443.14
2023-03-16T23:37:54.805Z,101444.75
2023-03-16T23:40:25.051Z,101446.36
2023-03-16T23:42:54.861Z,101450.13
2023-03-16T23:45:38.289Z,101451.69
2023-03-16T23:48:11.330Z,101454.77
2023-03-16T23:50:40.177Z,101459.13
2023-03-16T23:53:14.399Z,101453.83
2023-03-16T23:55:43.172Z,101457.27
2023-03-16T23:58:12.376Z,101457.84
